createdAt,value
2023-05-11T00:02:14.022Z,16.20
2023-05-11T00:04:42.586Z,15.10
2023-05-11T00:07:11.847Z,15.10
2023-05-11T00:09:42.080Z,15.00
2023-05-11T00:12:10.037Z,15.10
2023-05-11T00:14:38.807Z,15.00
2023-05-11T00:17:15.557Z,15.00
2023-05-11T00:22:39.738Z,14.20
2023-05-11T00:25:20.166Z,15.00
2023-05-11T00:27:50.889Z,15.20
2023-05-11T00:30:26.062Z,13.80
2023-05-11T00:33:03.883Z,14.90
2023-05-11T00:35:47.345Z,13.90
2023-05-11T00:38:20.544Z,14.50
2023-05-11T00:40:50.337Z,15.10
2023-05-11T00:43:21.093Z,15.00
2023-05-11T00:45:54.362Z,13.80
2023-05-11T00:48:26.482Z,15.00
2023-05-11T00:51:01.252Z,15.00
2023-05-11T00:53:30.691Z,15.00
2023-05-11T00:56:04.044Z,15.00
2023-05-11T01:07:16.922Z,15.00
2023-05-11T01:10:12.451Z,15.00
2023-05-11T01:12:52.253Z,13.30
2023-05-11T01:15:36.339Z,14.60
2023-05-11T01:18:23.610Z,13.90
2023-05-11T01:21:12.006Z,14.90
2023-05-11T01:24:05.573Z,14.40
2023-05-11T01:27:16.247Z,14.70
2023-05-11T01:30:32.291Z,15.90
2023-05-11T01:33:12.202Z,14.20
2023-05-11T01:35:53.349Z,15.40
2023-05-11T01:38:29.627Z,14.70
2023-05-11T01:41:03.893Z,13.90
2023-05-11T01:43:41.692Z,13.30
2023-05-11T01:46:18.568Z,13.50
2023-05-11T01:49:00.480Z,14.10
2023-05-11T01:51:40.211Z,13.30
2023-05-11T01:54:13.633Z,14.60
2023-05-11T01:56:44.916Z,15.10
2023-05-11T01:59:15.048Z,14.50
2023-05-11T02:01:45.999Z,14.70
2023-05-11T02:04:15.937Z,14.70
2023-05-11T02:06:53.070Z,14.50
2023-05-11T02:09:30.204Z,14.50
2023-05-11T02:12:02.365Z,15.30
2023-05-11T02:14:39.387Z,14.50
2023-05-11T02:17:09.420Z,14.60
2023-05-11T02:19:39.978Z,13.30
2023-05-11T02:22:09.055Z,13.60
2023-05-11T02:24:41.232Z,14.50
2023-05-11T02:27:09.464Z,13.40
2023-05-11T02:29:37.212Z,14.40
2023-05-11T02:32:10.149Z,14.50
2023-05-11T02:34:43.829Z,13.80
2023-05-11T02:37:16.279Z,14.70
2023-05-11T02:39:48.290Z,12.80
2023-05-11T02:42:30.872Z,14.70
2023-05-11T02:45:08.989Z,15.50
2023-05-11T02:47:49.524Z,13.80
2023-05-11T02:50:20.892Z,14.30
2023-05-11T02:52:55.918Z,15.40
2023-05-11T02:55:25.960Z,15.40
2023-05-11T02:57:53.575Z,14.30
2023-05-11T03:00:21.456Z,14.40
2023-05-11T03:02:49.562Z,14.20
2023-05-11T03:05:17.366Z,14.20
2023-05-11T03:07:45.825Z,13.00
2023-05-11T03:10:13.850Z,14.20
2023-05-11T03:12:42.223Z,14.20
2023-05-11T03:15:12.310Z,14.20
2023-05-11T03:17:41.384Z,14.10
2023-05-11T03:20:12.721Z,14.20
2023-05-11T03:22:41.180Z,13.90
2023-05-11T03:25:10.794Z,14.10
2023-05-11T03:27:43.290Z,14.10
2023-05-11T03:30:13.999Z,15.40
2023-05-11T03:32:42.207Z,15.10
2023-05-11T03:35:12.436Z,13.90
2023-05-11T03:37:42.438Z,14.00
2023-05-11T03:40:14.674Z,14.50
2023-05-11T03:42:46.541Z,15.10
2023-05-11T03:45:22.402Z,13.20
2023-05-11T03:47:56.064Z,12.90
2023-05-11T03:50:25.683Z,13.90
2023-05-11T03:53:09.467Z,12.70
2023-05-11T03:55:41.883Z,12.70
2023-05-11T03:58:13.974Z,12.60
2023-05-11T04:00:46.414Z,12.90
2023-05-11T04:03:17.699Z,12.80
2023-05-11T04:05:49.439Z,12.50
2023-05-11T04:08:22.129Z,12.40
2023-05-11T04:13:59.828Z,12.80
2023-05-11T04:16:31.859Z,13.30
2023-05-11T04:19:09.557Z,13.40
2023-05-11T04:21:40.180Z,12.20
2023-05-11T04:24:13.412Z,12.40
2023-05-11T04:26:46.579Z,12.30
2023-05-11T04:29:19.522Z,13.80
2023-05-11T04:31:50.023Z,12.50
2023-05-11T04:34:21.925Z,12.60
2023-05-11T04:36:51.589Z,12.50
2023-05-11T04:39:21.217Z,13.90
2023-05-11T04:41:49.189Z,13.90
2023-05-11T04:44:21.557Z,13.80
2023-05-11T04:46:49.562Z,13.10
2023-05-11T04:49:16.821Z,13.80
2023-05-11T04:51:43.627Z,13.80
2023-05-11T04:54:10.594Z,13.80
2023-05-11T04:56:40.666Z,14.00
2023-05-11T04:59:08.274Z,13.90
2023-05-11T05:01:35.953Z,13.90
2023-05-11T05:04:03.522Z,13.90
2023-05-11T05:06:30.554Z,14.00
2023-05-11T05:08:58.030Z,14.00
2023-05-11T05:11:25.343Z,13.90
2023-05-11T05:13:53.473Z,13.90
2023-05-11T05:16:20.399Z,13.90
2023-05-11T05:18:47.726Z,13.90
2023-05-11T05:21:14.752Z,13.90
2023-05-11T05:23:41.629Z,14.00
2023-05-11T05:26:08.584Z,14.10
2023-05-11T05:28:36.040Z,14.10
2023-05-11T05:31:03.022Z,14.00
2023-05-11T05:33:30.021Z,14.00
2023-05-11T05:35:56.974Z,14.00
2023-05-11T05:38:24.055Z,14.00
2023-05-11T05:40:51.598Z,14.10
2023-05-11T05:43:18.516Z,14.20
2023-05-11T05:45:45.371Z,14.20
2023-05-11T05:48:12.344Z,14.10
2023-05-11T05:50:39.241Z,14.20
2023-05-11T05:53:07.449Z,14.20
2023-05-11T05:55:36.461Z,14.20
2023-05-11T05:58:03.401Z,14.20
2023-05-11T06:00:32.931Z,14.10
2023-05-11T06:03:00.009Z,14.10
2023-05-11T06:05:27.193Z,14.20
2023-05-11T06:08:09.175Z,14.10
2023-05-11T06:10:38.029Z,14.10
2023-05-11T06:13:05.041Z,14.00
2023-05-11T06:15:32.413Z,12.40
2023-05-11T06:17:59.377Z,14.10
2023-05-11T06:20:26.268Z,14.30
2023-05-11T06:22:53.165Z,14.30
2023-05-11T06:25:20.103Z,14.20
2023-05-11T06:27:47.186Z,14.20
2023-05-11T06:30:14.360Z,14.10
2023-05-11T06:32:41.695Z,14.20
2023-05-11T06:35:11.692Z,14.20
2023-05-11T06:37:38.583Z,14.20
2023-05-11T06:40:06.736Z,14.20
2023-05-11T06:42:34.528Z,14.30
2023-05-11T06:45:01.970Z,14.30
2023-05-11T06:47:29.581Z,14.30
2023-05-11T06:49:56.496Z,14.20
2023-05-11T06:52:23.447Z,14.20
2023-05-11T06:54:50.316Z,14.20
2023-05-11T06:57:17.837Z,14.20
2023-05-11T06:59:44.866Z,14.20
2023-05-11T07:02:11.709Z,14.20
2023-05-11T07:04:39.027Z,14.30
2023-05-11T07:07:06.068Z,14.40
2023-05-11T07:09:32.931Z,14.40
2023-05-11T07:11:59.881Z,14.40
2023-05-11T07:14:26.780Z,14.40
2023-05-11T07:16:54.152Z,14.40
2023-05-11T07:19:21.156Z,14.50
2023-05-11T07:21:48.041Z,14.60
2023-05-11T07:24:14.966Z,14.60
2023-05-11T07:26:41.805Z,14.60
2023-05-11T07:29:09.108Z,14.70
2023-05-11T07:31:36.795Z,14.70
2023-05-11T07:34:04.707Z,14.70
2023-05-11T07:36:31.724Z,14.90
2023-05-11T07:38:59.594Z,15.00
2023-05-11T07:41:26.994Z,15.10
2023-05-11T07:43:54.873Z,15.10
2023-05-11T07:46:22.321Z,15.10
2023-05-11T07:49:03.479Z,15.20
2023-05-11T07:51:39.457Z,15.30
2023-05-11T07:54:06.826Z,15.40
2023-05-11T07:56:33.793Z,15.30
2023-05-11T07:59:00.832Z,15.20
2023-05-11T08:01:27.815Z,15.40
2023-05-11T08:03:55.187Z,15.40
2023-05-11T08:06:22.144Z,15.40
2023-05-11T08:08:49.045Z,15.40
2023-05-11T08:11:16.067Z,15.40
2023-05-11T08:13:43.042Z,15.50
2023-05-11T08:16:10.074Z,15.60
2023-05-11T08:18:37.207Z,15.60
2023-05-11T08:21:04.330Z,15.60
2023-05-11T08:23:31.753Z,15.60
2023-05-11T08:25:58.743Z,15.60
2023-05-11T08:28:25.750Z,15.70
2023-05-11T08:30:57.714Z,15.80
2023-05-11T08:33:37.763Z,15.80
2023-05-11T08:36:06.985Z,15.80
2023-05-11T08:38:35.455Z,15.80
2023-05-11T08:41:02.876Z,15.70
2023-05-11T08:43:32.478Z,15.50
2023-05-11T08:46:04.713Z,15.50
2023-05-11T08:48:32.336Z,15.60
2023-05-11T08:51:00.229Z,15.60
2023-05-11T08:53:27.432Z,15.70
2023-05-11T08:55:58.007Z,15.70
2023-05-11T08:58:26.292Z,15.70
2023-05-11T09:00:55.039Z,15.60
2023-05-11T09:03:22.921Z,15.60
2023-05-11T09:05:50.479Z,15.70
2023-05-11T09:08:19.261Z,15.80
2023-05-11T09:10:46.641Z,16.00
2023-05-11T09:13:13.787Z,15.90
2023-05-11T09:15:40.787Z,15.90
2023-05-11T09:18:08.705Z,15.80
2023-05-11T09:20:35.865Z,15.90
2023-05-11T09:23:02.848Z,15.90
2023-05-11T09:25:33.644Z,16.00
2023-05-11T09:28:01.277Z,16.00
2023-05-11T09:30:28.518Z,16.10
2023-05-11T09:33:00.525Z,16.10
2023-05-11T09:35:32.416Z,16.20
2023-05-11T09:38:12.820Z,16.20
2023-05-11T09:40:45.053Z,16.10
2023-05-11T09:43:21.737Z,16.20
2023-05-11T09:45:50.978Z,16.10
2023-05-11T09:48:21.196Z,16.10
2023-05-11T09:50:49.791Z,16.00
2023-05-11T09:53:17.248Z,16.10
2023-05-11T09:55:55.867Z,16.10
2023-05-11T09:58:22.882Z,16.00
2023-05-11T10:00:51.444Z,16.10
2023-05-11T10:03:18.969Z,16.00
2023-05-11T10:06:00.656Z,16.00
2023-05-11T10:08:34.201Z,16.10
2023-05-11T10:11:02.879Z,16.00
2023-05-11T10:13:32.721Z,16.10
2023-05-11T10:16:01.073Z,16.10
2023-05-11T10:18:28.007Z,16.10
2023-05-11T10:20:55.947Z,16.30
2023-05-11T10:23:23.558Z,16.40
2023-05-11T10:25:52.957Z,16.40
2023-05-11T10:28:21.148Z,16.40
2023-05-11T10:30:48.667Z,16.50
2023-05-11T10:33:17.118Z,16.50
2023-05-11T10:35:45.836Z,16.40
2023-05-11T10:38:13.595Z,16.50
2023-05-11T10:40:42.987Z,16.40
2023-05-11T10:43:44.063Z,16.40
2023-05-11T10:46:40.689Z,16.40
2023-05-11T10:49:08.088Z,16.30
2023-05-11T10:52:00.774Z,16.30
2023-05-11T10:54:36.637Z,16.10
2023-05-11T10:57:24.855Z,16.10
2023-05-11T11:00:17.109Z,16.10
2023-05-11T11:02:45.495Z,16.00
2023-05-11T11:05:17.463Z,16.00
2023-05-11T11:08:04.189Z,16.00
2023-05-11T11:10:34.328Z,15.90
2023-05-11T11:13:09.885Z,16.10
2023-05-11T11:16:08.447Z,16.20
2023-05-11T11:18:35.496Z,16.30
2023-05-11T11:21:03.186Z,16.30
2023-05-11T11:23:54.538Z,16.30
2023-05-11T11:26:48.569Z,16.20
2023-05-11T11:29:15.709Z,16.20
2023-05-11T11:31:45.368Z,16.20
2023-05-11T11:34:30.062Z,16.20
2023-05-11T11:37:06.202Z,16.20
2023-05-11T11:39:42.614Z,16.20
2023-05-11T11:42:15.666Z,16.20
2023-05-11T11:44:46.568Z,16.30
2023-05-11T11:47:19.695Z,16.50
2023-05-11T11:49:52.226Z,16.90
2023-05-11T11:52:28.630Z,17.30
2023-05-11T11:54:57.189Z,17.60
2023-05-11T11:57:32.157Z,17.70
2023-05-11T12:00:07.402Z,17.80
2023-05-11T12:02:35.299Z,17.90
2023-05-11T12:05:19.675Z,18.10
2023-05-11T12:07:49.884Z,18.10
2023-05-11T12:10:18.782Z,18.10
2023-05-11T12:12:47.077Z,18.20
2023-05-11T12:15:32.358Z,18.20
2023-05-11T12:18:02.574Z,18.00
2023-05-11T12:20:29.626Z,17.70
2023-05-11T12:22:56.655Z,17.70
2023-05-11T12:25:24.181Z,17.70
2023-05-11T12:28:01.827Z,17.70
2023-05-11T12:30:30.865Z,17.80
2023-05-11T12:32:59.980Z,17.90
2023-05-11T12:35:34.069Z,17.80
2023-05-11T12:38:04.842Z,17.80
2023-05-11T12:40:32.296Z,17.90
2023-05-11T12:43:00.473Z,17.80
2023-05-11T12:45:29.150Z,17.80
2023-05-11T12:47:57.331Z,17.80
2023-05-11T12:50:25.002Z,17.90
2023-05-11T12:52:52.814Z,17.90
2023-05-11T12:55:30.710Z,17.90
2023-05-11T12:58:18.682Z,18.00
2023-05-11T13:00:58.743Z,18.20
2023-05-11T13:03:32.689Z,18.30
2023-05-11T13:06:07.976Z,18.40
2023-05-11T13:08:39.274Z,18.30
2023-05-11T13:11:26.750Z,18.30
2023-05-11T13:13:56.981Z,18.30
2023-05-11T13:16:28.727Z,18.10
2023-05-11T13:19:07.617Z,18.10
2023-05-11T13:21:35.059Z,18.10
2023-05-11T13:24:03.979Z,18.10
2023-05-11T13:26:32.556Z,18.00
2023-05-11T13:29:10.324Z,18.10
2023-05-11T13:31:45.686Z,18.10
2023-05-11T13:34:13.453Z,18.10
2023-05-11T13:36:40.977Z,18.10
2023-05-11T13:39:08.552Z,18.00
2023-05-11T13:41:35.841Z,18.00
2023-05-11T13:44:03.383Z,18.10
2023-05-11T13:46:30.348Z,18.10
2023-05-11T13:48:59.624Z,18.00
2023-05-11T13:51:27.738Z,17.90
2023-05-11T13:53:55.100Z,17.90
2023-05-11T13:56:22.337Z,18.00
2023-05-11T13:58:49.391Z,17.90
2023-05-11T14:01:16.390Z,17.80
2023-05-11T14:03:44.038Z,17.70
2023-05-11T14:06:11.138Z,17.60
2023-05-11T14:08:38.042Z,17.60
2023-05-11T14:11:05.049Z,17.50
2023-05-11T14:13:31.933Z,17.50
2023-05-11T14:15:59.349Z,17.40
2023-05-11T14:18:26.730Z,17.50
2023-05-11T14:20:54.352Z,17.50
2023-05-11T14:23:21.659Z,17.40
2023-05-11T14:25:48.733Z,17.30
2023-05-11T14:28:15.686Z,17.30
2023-05-11T14:30:42.685Z,17.30
2023-05-11T14:33:09.620Z,17.30
2023-05-11T14:35:39.058Z,17.20
2023-05-11T14:38:07.184Z,17.20
2023-05-11T14:40:34.154Z,17.10
2023-05-11T14:43:01.495Z,17.10
2023-05-11T14:45:28.946Z,17.00
2023-05-11T14:47:56.209Z,16.90
2023-05-11T14:50:23.574Z,17.00
2023-05-11T14:52:50.904Z,17.00
2023-05-11T14:55:18.184Z,17.00
2023-05-11T14:57:45.367Z,17.00
2023-05-11T15:00:13.397Z,17.10
2023-05-11T15:02:41.110Z,17.10
2023-05-11T15:05:08.564Z,17.30
2023-05-11T15:07:36.814Z,17.30
2023-05-11T15:10:04.540Z,17.50
2023-05-11T15:12:31.551Z,17.50
2023-05-11T15:14:58.515Z,17.30
2023-05-11T15:17:26.911Z,17.10
2023-05-11T15:19:53.899Z,17.10
2023-05-11T15:22:22.539Z,17.00
2023-05-11T15:24:49.530Z,16.90
2023-05-11T15:27:16.520Z,16.70
2023-05-11T15:29:44.040Z,16.60
2023-05-11T15:32:14.808Z,16.50
2023-05-11T15:34:55.529Z,16.50
2023-05-11T15:37:26.508Z,16.40
2023-05-11T15:39:53.453Z,16.30
2023-05-11T15:42:20.443Z,16.20
2023-05-11T15:44:47.408Z,16.30
2023-05-11T15:47:14.695Z,16.30
2023-05-11T15:49:41.700Z,16.20
2023-05-11T15:52:08.725Z,16.20
2023-05-11T15:54:36.264Z,16.30
2023-05-11T15:57:03.256Z,16.30
2023-05-11T15:59:32.592Z,16.30
2023-05-11T16:01:59.779Z,16.30
2023-05-11T16:04:26.889Z,16.40
2023-05-11T16:06:53.833Z,16.40
2023-05-11T16:09:20.781Z,16.40
2023-05-11T16:11:47.737Z,16.40
2023-05-11T16:14:14.835Z,16.50
2023-05-11T16:16:42.311Z,16.50
2023-05-11T16:19:09.514Z,16.60
2023-05-11T16:21:37.131Z,16.50
2023-05-11T16:24:04.958Z,16.60
2023-05-11T16:26:31.882Z,16.50
2023-05-11T16:28:59.236Z,16.60
2023-05-11T16:31:26.212Z,16.50
2023-05-11T16:33:53.432Z,16.50
2023-05-11T16:36:21.273Z,16.40
2023-05-11T16:38:49.622Z,16.40
2023-05-11T16:41:16.731Z,16.40
2023-05-11T16:43:46.228Z,16.30
2023-05-11T16:46:13.509Z,16.40
2023-05-11T16:48:40.576Z,16.20
2023-05-11T16:51:07.949Z,16.10
2023-05-11T16:53:34.884Z,16.10
2023-05-11T16:56:01.881Z,16.10
2023-05-11T16:58:30.853Z,16.10
2023-05-11T17:00:59.332Z,16.10
2023-05-11T17:03:27.019Z,16.10
2023-05-11T17:05:54.083Z,16.00
2023-05-11T17:08:21.170Z,15.90
2023-05-11T17:10:48.061Z,15.90
2023-05-11T17:13:15.032Z,15.90
2023-05-11T17:15:42.247Z,15.80
2023-05-11T17:18:09.547Z,15.80
2023-05-11T17:20:36.577Z,15.80
2023-05-11T17:23:03.964Z,17.20
2023-05-11T17:25:31.775Z,16.00
2023-05-11T17:28:01.093Z,15.90
2023-05-11T17:30:40.018Z,15.90
2023-05-11T17:33:17.287Z,15.90
2023-05-11T17:35:44.361Z,16.00
2023-05-11T17:38:11.320Z,15.90
2023-05-11T17:40:38.646Z,15.80
2023-05-11T17:43:05.502Z,15.70
2023-05-11T17:45:32.829Z,15.70
2023-05-11T17:47:59.891Z,15.70
2023-05-11T17:50:26.887Z,15.60
2023-05-11T17:52:53.730Z,15.60
2023-05-11T17:55:20.964Z,15.60
2023-05-11T17:57:48.560Z,15.60
2023-05-11T18:00:16.096Z,15.50
2023-05-11T18:02:43.032Z,15.60
2023-05-11T18:05:10.320Z,15.60
2023-05-11T18:07:37.424Z,15.50
2023-05-11T18:10:06.007Z,15.50
2023-05-11T18:12:33.323Z,15.50
2023-05-11T18:15:00.662Z,15.50
2023-05-11T18:17:28.065Z,15.60
2023-05-11T18:19:55.552Z,15.50
2023-05-11T18:22:23.096Z,15.50
2023-05-11T18:24:49.941Z,15.50
2023-05-11T18:27:16.842Z,15.50
2023-05-11T18:29:45.134Z,15.50
2023-05-11T18:32:12.061Z,15.40
2023-05-11T18:34:42.565Z,15.40
2023-05-11T18:37:09.832Z,15.40
2023-05-11T18:39:36.999Z,15.40
2023-05-11T18:42:05.563Z,15.40
2023-05-11T18:44:34.491Z,15.40
2023-05-11T18:47:01.596Z,15.30
2023-05-11T18:49:28.571Z,15.30
2023-05-11T18:51:55.800Z,15.40
2023-05-11T18:54:23.118Z,15.40
2023-05-11T18:56:50.194Z,15.30
2023-05-11T18:59:17.222Z,15.30
2023-05-11T19:01:48.177Z,15.30
2023-05-11T19:04:19.660Z,15.30
2023-05-11T19:06:46.898Z,15.30
2023-05-11T19:09:14.198Z,15.30
2023-05-11T19:11:41.832Z,15.40
2023-05-11T19:14:10.782Z,15.40
2023-05-11T19:16:38.015Z,15.40
2023-05-11T19:19:05.158Z,15.40
2023-05-11T19:21:33.225Z,15.40
2023-05-11T19:24:02.722Z,15.50
2023-05-11T19:26:30.044Z,15.50
2023-05-11T19:28:57.508Z,15.40
2023-05-11T19:31:27.481Z,15.50
2023-05-11T19:33:54.830Z,15.40
2023-05-11T19:36:22.020Z,15.40
2023-05-11T19:38:50.468Z,15.50
2023-05-11T19:41:19.518Z,15.40
2023-05-11T19:43:49.923Z,15.40
2023-05-11T19:46:16.896Z,15.30
2023-05-11T19:48:43.902Z,15.40
2023-05-11T19:51:10.835Z,15.40
2023-05-11T19:53:38.364Z,15.40
2023-05-11T19:56:05.580Z,15.40
2023-05-11T19:58:33.108Z,15.30
2023-05-11T20:01:00.078Z,15.30
2023-05-11T20:03:28.883Z,15.30
2023-05-11T20:05:56.523Z,15.20
2023-05-11T20:08:23.483Z,15.20
2023-05-11T20:10:50.696Z,15.10
2023-05-11T20:13:17.612Z,15.00
2023-05-11T20:15:44.643Z,15.00
2023-05-11T20:18:11.742Z,14.90
2023-05-11T20:20:38.630Z,14.80
2023-05-11T20:23:06.477Z,14.70
2023-05-11T20:25:34.034Z,14.70
2023-05-11T20:28:01.213Z,14.70
2023-05-11T20:30:28.134Z,14.70
2023-05-11T20:35:25.295Z,14.70
2023-05-11T20:37:52.198Z,14.70
2023-05-11T20:40:19.341Z,14.80
2023-05-11T20:42:46.971Z,14.70
2023-05-11T20:45:14.777Z,14.80
2023-05-11T20:47:41.762Z,14.80
2023-05-11T20:50:10.229Z,14.80
2023-05-11T20:52:37.708Z,14.80
2023-05-11T20:55:05.074Z,14.80
2023-05-11T20:57:32.024Z,14.80
2023-05-11T21:02:29.402Z,14.80
2023-05-11T21:05:02.022Z,14.80
2023-05-11T21:07:29.622Z,14.80
2023-05-11T21:09:56.540Z,14.70
2023-05-11T21:12:23.426Z,14.70
2023-05-11T21:14:50.425Z,14.70
2023-05-11T21:17:17.444Z,14.70
2023-05-11T21:19:44.825Z,14.60
2023-05-11T21:22:11.779Z,14.70
2023-05-11T21:24:39.101Z,14.70
2023-05-11T21:27:07.450Z,14.80
2023-05-11T21:29:34.813Z,14.70
2023-05-11T21:32:02.383Z,14.80
2023-05-11T21:34:29.333Z,14.80
2023-05-11T21:36:56.343Z,14.90
2023-05-11T21:39:25.091Z,14.90
2023-05-11T21:41:52.755Z,15.00
2023-05-11T21:44:20.199Z,15.00
2023-05-11T21:46:47.187Z,14.90
2023-05-11T21:49:14.843Z,15.00
2023-05-11T21:51:42.443Z,15.00
2023-05-11T21:54:09.538Z,15.00
2023-05-11T21:56:37.001Z,15.00
2023-05-11T21:59:04.037Z,15.00
2023-05-11T22:01:31.204Z,14.90
2023-05-11T22:04:01.077Z,15.00
2023-05-11T22:06:31.527Z,14.90
2023-05-11T22:08:58.777Z,14.80
2023-05-11T22:11:25.878Z,14.80
2023-05-11T22:13:52.858Z,14.60
2023-05-11T22:16:19.854Z,14.60
2023-05-11T22:18:47.104Z,14.50
2023-05-11T22:21:14.640Z,14.40
2023-05-11T22:23:41.796Z,14.40
2023-05-11T22:26:08.715Z,14.40
2023-05-11T22:28:36.039Z,14.00
2023-05-11T22:31:03.501Z,14.20
2023-05-11T22:33:30.832Z,14.10
2023-05-11T22:35:57.684Z,14.00
2023-05-11T22:38:24.880Z,13.90
2023-05-11T22:40:51.963Z,13.80
2023-05-11T22:43:18.878Z,13.80
2023-05-11T22:45:45.887Z,13.90
2023-05-11T22:48:12.820Z,14.00
2023-05-11T22:50:46.649Z,14.00
2023-05-11T22:53:19.101Z,14.10
2023-05-11T22:55:46.449Z,14.10
2023-05-11T22:58:13.517Z,14.30
2023-05-11T23:00:40.546Z,14.30
2023-05-11T23:03:08.286Z,14.20
2023-05-11T23:05:37.222Z,14.30
2023-05-11T23:08:04.535Z,14.20
2023-05-11T23:10:32.142Z,14.30
2023-05-11T23:12:59.095Z,14.30
2023-05-11T23:15:26.236Z,14.30
2023-05-11T23:17:53.334Z,14.30
2023-05-11T23:20:20.531Z,14.40
2023-05-11T23:22:47.613Z,14.40
2023-05-11T23:25:14.637Z,14.40
2023-05-11T23:27:41.849Z,14.40
2023-05-11T23:30:09.193Z,14.50
2023-05-11T23:32:36.026Z,14.50
2023-05-11T23:35:02.993Z,14.50
2023-05-11T23:37:30.305Z,14.60
2023-05-11T23:39:57.629Z,14.70
2023-05-11T23:42:24.509Z,14.80
2023-05-11T23:44:51.445Z,14.70
2023-05-11T23:47:18.405Z,14.70
2023-05-11T23:49:45.790Z,14.60
2023-05-11T23:52:12.688Z,14.60
2023-05-11T23:54:39.681Z,14.60
2023-05-11T23:57:06.649Z,14.60
2023-05-11T23:59:33.965Z,14.70
